sensor_id;sensor_type;location;lat;lon;timestamp;P1;durP1;ratioP1;P2;durP2;ratioP2
11531;SDS011;5822;51.000;5.874;2023-05-07T00:02:21;11.50;;;10.90;;
11531;SDS011;5822;51.000;5.874;2023-05-07T00:04:47;11.63;;;11.02;;
11531;SDS011;5822;51.000;5.874;2023-05-07T00:07:14;12.20;;;11.50;;
11531;SDS011;5822;51.000;5.874;2023-05-07T00:09:40;11.80;;;11.20;;
11531;SDS011;5822;51.000;5.874;2023-05-07T00:12:06;14.20;;;13.40;;
11531;SDS011;5822;51.000;5.874;2023-05-07T00:14:32;13.25;;;12.55;;
11531;SDS011;5822;51.000;5.874;2023-05-07T00:16:58;12.82;;;12.20;;
11531;SDS011;5822;51.000;5.874;2023-05-07T00:19:23;12.37;;;11.67;;
11531;SDS011;5822;51.000;5.874;2023-05-07T00:21:49;12.30;;;11.70;;
11531;SDS011;5822;51.000;5.874;2023-05-07T00:24:15;12.53;;;11.93;;
11531;SDS011;5822;51.000;5.874;2023-05-07T00:26:40;12.95;;;12.25;;
11531;SDS011;5822;51.000;5.874;2023-05-07T00:29:06;12.18;;;11.55;;
11531;SDS011;5822;51.000;5.874;2023-05-07T00:31:32;12.15;;;11.55;;
11531;SDS011;5822;51.000;5.874;2023-05-07T00:33:58;11.60;;;11.00;;
11531;SDS011;5822;51.000;5.874;2023-05-07T00:36:23;11.60;;;11.00;;
11531;SDS011;5822;51.000;5.874;2023-05-07T00:38:49;11.48;;;10.88;;
11531;SDS011;5822;51.000;5.874;2023-05-07T00:41:15;12.05;;;11.40;;
11531;SDS011;5822;51.000;5.874;2023-05-07T00:43:40;11.63;;;11.02;;
11531;SDS011;5822;51.000;5.874;2023-05-07T00:46:06;11.80;;;11.10;;
11531;SDS011;5822;51.000;5.874;2023-05-07T00:48:32;11.87;;;11.27;;
11531;SDS011;5822;51.000;5.874;2023-05-07T00:50:57;11.20;;;10.70;;
11531;SDS011;5822;51.000;5.874;2023-05-07T00:53:23;11.27;;;10.68;;
11531;SDS011;5822;51.000;5.874;2023-05-07T00:55:49;11.35;;;10.77;;
11531;SDS011;5822;51.000;5.874;2023-05-07T00:58:15;10.85;;;10.35;;
11531;SDS011;5822;51.000;5.874;2023-05-07T01:00:41;10.70;;;10.20;;
11531;SDS011;5822;51.000;5.874;2023-05-07T01:03:07;10.70;;;10.20;;
11531;SDS011;5822;51.000;5.874;2023-05-07T01:05:35;10.55;;;10.05;;
11531;SDS011;5822;51.000;5.874;2023-05-07T01:08:01;10.10;;;9.70;;
11531;SDS011;5822;51.000;5.874;2023-05-07T01:10:29;10.32;;;9.90;;
11531;SDS011;5822;51.000;5.874;2023-05-07T01:12:58;10.80;;;10.30;;
11531;SDS011;5822;51.000;5.874;2023-05-07T01:15:24;11.80;;;11.20;;
11531;SDS011;5822;51.000;5.874;2023-05-07T01:17:50;11.20;;;10.70;;
11531;SDS011;5822;51.000;5.874;2023-05-07T01:20:17;10.82;;;10.32;;
11531;SDS011;5822;51.000;5.874;2023-05-07T01:22:43;10.53;;;10.03;;
11531;SDS011;5822;51.000;5.874;2023-05-07T01:25:09;10.25;;;9.85;;
11531;SDS011;5822;51.000;5.874;2023-05-07T01:27:35;10.53;;;10.03;;
11531;SDS011;5822;51.000;5.874;2023-05-07T01:30:02;10.30;;;9.80;;
11531;SDS011;5822;51.000;5.874;2023-05-07T01:32:29;10.50;;;10.00;;
11531;SDS011;5822;51.000;5.874;2023-05-07T01:35:18;10.27;;;9.80;;
11531;SDS011;5822;51.000;5.874;2023-05-07T01:37:47;10.00;;;9.60;;
11531;SDS011;5822;51.000;5.874;2023-05-07T01:40:14;10.50;;;10.00;;
11531;SDS011;5822;51.000;5.874;2023-05-07T01:42:40;10.60;;;10.10;;
11531;SDS011;5822;51.000;5.874;2023-05-07T01:45:08;10.27;;;9.85;;
11531;SDS011;5822;51.000;5.874;2023-05-07T01:47:34;10.27;;;9.80;;
11531;SDS011;5822;51.000;5.874;2023-05-07T01:50:01;10.17;;;9.67;;
11531;SDS011;5822;51.000;5.874;2023-05-07T01:52:27;10.40;;;9.90;;
11531;SDS011;5822;51.000;5.874;2023-05-07T01:54:53;10.00;;;9.60;;
11531;SDS011;5822;51.000;5.874;2023-05-07T01:57:19;10.18;;;9.75;;
11531;SDS011;5822;51.000;5.874;2023-05-07T01:59:45;10.27;;;9.77;;
11531;SDS011;5822;51.000;5.874;2023-05-07T02:02:10;10.40;;;9.90;;
11531;SDS011;5822;51.000;5.874;2023-05-07T02:04:36;10.60;;;10.10;;
11531;SDS011;5822;51.000;5.874;2023-05-07T02:07:02;10.10;;;9.70;;
11531;SDS011;5822;51.000;5.874;2023-05-07T02:09:27;10.15;;;9.65;;
11531;SDS011;5822;51.000;5.874;2023-05-07T02:11:53;10.20;;;9.80;;
11531;SDS011;5822;51.000;5.874;2023-05-07T02:14:18;11.17;;;10.67;;
11531;SDS011;5822;51.000;5.874;2023-05-07T02:16:45;10.70;;;10.20;;
11531;SDS011;5822;51.000;5.874;2023-05-07T02:19:11;10.33;;;9.83;;
11531;SDS011;5822;51.000;5.874;2023-05-07T02:21:36;10.60;;;10.10;;
11531;SDS011;5822;51.000;5.874;2023-05-07T02:24:02;10.30;;;9.80;;
11531;SDS011;5822;51.000;5.874;2023-05-07T02:26:28;10.25;;;9.75;;
11531;SDS011;5822;51.000;5.874;2023-05-07T02:28:54;10.93;;;10.43;;
11531;SDS011;5822;51.000;5.874;2023-05-07T02:31:19;11.20;;;10.65;;
11531;SDS011;5822;51.000;5.874;2023-05-07T02:33:45;11.20;;;10.70;;
11531;SDS011;5822;51.000;5.874;2023-05-07T02:36:11;11.53;;;11.03;;
11531;SDS011;5822;51.000;5.874;2023-05-07T02:38:37;11.70;;;11.10;;
11531;SDS011;5822;51.000;5.874;2023-05-07T02:41:03;11.50;;;11.00;;
11531;SDS011;5822;51.000;5.874;2023-05-07T02:43:29;12.27;;;11.68;;
11531;SDS011;5822;51.000;5.874;2023-05-07T02:46:01;12.20;;;11.60;;
11531;SDS011;5822;51.000;5.874;2023-05-07T02:48:31;11.57;;;11.07;;
11531;SDS011;5822;51.000;5.874;2023-05-07T02:50:57;11.23;;;10.73;;
11531;SDS011;5822;51.000;5.874;2023-05-07T02:53:23;10.60;;;10.10;;
11531;SDS011;5822;51.000;5.874;2023-05-07T02:55:55;10.40;;;9.90;;
11531;SDS011;5822;51.000;5.874;2023-05-07T02:58:22;10.53;;;10.03;;
11531;SDS011;5822;51.000;5.874;2023-05-07T03:00:48;10.80;;;10.30;;
11531;SDS011;5822;51.000;5.874;2023-05-07T03:03:14;11.67;;;11.13;;
11531;SDS011;5822;51.000;5.874;2023-05-07T03:05:40;11.07;;;10.57;;
11531;SDS011;5822;51.000;5.874;2023-05-07T03:08:06;10.70;;;10.20;;
11531;SDS011;5822;51.000;5.874;2023-05-07T03:10:32;10.23;;;9.83;;
11531;SDS011;5822;51.000;5.874;2023-05-07T03:12:58;10.33;;;9.83;;
11531;SDS011;5822;51.000;5.874;2023-05-07T03:15:24;10.20;;;9.80;;
11531;SDS011;5822;51.000;5.874;2023-05-07T03:17:50;10.23;;;9.73;;
11531;SDS011;5822;51.000;5.874;2023-05-07T03:20:16;10.30;;;9.80;;
11531;SDS011;5822;51.000;5.874;2023-05-07T03:22:41;10.80;;;10.30;;
11531;SDS011;5822;51.000;5.874;2023-05-07T03:25:08;11.00;;;10.50;;
11531;SDS011;5822;51.000;5.874;2023-05-07T03:27:35;11.20;;;10.70;;
11531;SDS011;5822;51.000;5.874;2023-05-07T03:30:01;10.82;;;10.32;;
11531;SDS011;5822;51.000;5.874;2023-05-07T03:32:27;11.10;;;10.60;;
11531;SDS011;5822;51.000;5.874;2023-05-07T03:34:53;10.98;;;10.48;;
11531;SDS011;5822;51.000;5.874;2023-05-07T03:37:18;11.03;;;10.53;;
11531;SDS011;5822;51.000;5.874;2023-05-07T03:39:44;11.03;;;10.53;;
11531;SDS011;5822;51.000;5.874;2023-05-07T03:42:10;11.20;;;10.70;;
11531;SDS011;5822;51.000;5.874;2023-05-07T03:44:35;10.90;;;10.40;;
11531;SDS011;5822;51.000;5.874;2023-05-07T03:47:01;10.70;;;10.20;;
11531;SDS011;5822;51.000;5.874;2023-05-07T03:49:30;10.68;;;10.18;;
11531;SDS011;5822;51.000;5.874;2023-05-07T03:51:55;10.83;;;10.33;;
11531;SDS011;5822;51.000;5.874;2023-05-07T03:54:21;10.70;;;10.20;;
11531;SDS011;5822;51.000;5.874;2023-05-07T03:56:47;10.60;;;10.10;;
11531;SDS011;5822;51.000;5.874;2023-05-07T03:59:13;10.50;;;10.00;;
11531;SDS011;5822;51.000;5.874;2023-05-07T04:01:38;11.30;;;10.80;;
11531;SDS011;5822;51.000;5.874;2023-05-07T04:04:05;11.40;;;10.90;;
11531;SDS011;5822;51.000;5.874;2023-05-07T04:06:31;11.45;;;10.95;;
11531;SDS011;5822;51.000;5.874;2023-05-07T04:08:56;11.50;;;11.00;;
11531;SDS011;5822;51.000;5.874;2023-05-07T04:11:22;11.70;;;11.20;;
11531;SDS011;5822;51.000;5.874;2023-05-07T04:13:48;12.27;;;11.68;;
11531;SDS011;5822;51.000;5.874;2023-05-07T04:16:13;11.93;;;11.35;;
11531;SDS011;5822;51.000;5.874;2023-05-07T04:18:39;12.07;;;11.48;;
11531;SDS011;5822;51.000;5.874;2023-05-07T04:21:05;12.35;;;11.75;;
11531;SDS011;5822;51.000;5.874;2023-05-07T04:23:38;11.93;;;11.32;;
11531;SDS011;5822;51.000;5.874;2023-05-07T04:26:03;11.73;;;11.20;;
11531;SDS011;5822;51.000;5.874;2023-05-07T04:28:29;11.18;;;10.68;;
11531;SDS011;5822;51.000;5.874;2023-05-07T04:30:55;11.90;;;11.35;;
11531;SDS011;5822;51.000;5.874;2023-05-07T04:33:21;11.73;;;11.13;;
11531;SDS011;5822;51.000;5.874;2023-05-07T04:35:46;11.90;;;11.30;;
11531;SDS011;5822;51.000;5.874;2023-05-07T04:38:12;11.63;;;11.07;;
11531;SDS011;5822;51.000;5.874;2023-05-07T04:40:37;11.35;;;10.85;;
11531;SDS011;5822;51.000;5.874;2023-05-07T04:43:04;11.30;;;10.80;;
11531;SDS011;5822;51.000;5.874;2023-05-07T04:45:29;11.20;;;10.70;;
11531;SDS011;5822;51.000;5.874;2023-05-07T04:47:55;11.20;;;10.70;;
11531;SDS011;5822;51.000;5.874;2023-05-07T04:50:21;11.60;;;11.10;;
11531;SDS011;5822;51.000;5.874;2023-05-07T04:52:48;11.77;;;11.18;;
11531;SDS011;5822;51.000;5.874;2023-05-07T04:55:14;12.05;;;11.45;;
11531;SDS011;5822;51.000;5.874;2023-05-07T04:57:39;11.77;;;11.18;;
11531;SDS011;5822;51.000;5.874;2023-05-07T05:00:06;12.02;;;11.43;;
11531;SDS011;5822;51.000;5.874;2023-05-07T05:02:34;11.50;;;11.00;;
11531;SDS011;5822;51.000;5.874;2023-05-07T05:05:00;11.10;;;10.60;;
11531;SDS011;5822;51.000;5.874;2023-05-07T05:07:28;11.25;;;10.75;;
11531;SDS011;5822;51.000;5.874;2023-05-07T05:09:54;10.90;;;10.40;;
11531;SDS011;5822;51.000;5.874;2023-05-07T05:12:20;10.77;;;10.27;;
11531;SDS011;5822;51.000;5.874;2023-05-07T05:14:46;10.60;;;10.10;;
11531;SDS011;5822;51.000;5.874;2023-05-07T05:17:12;10.95;;;10.45;;
11531;SDS011;5822;51.000;5.874;2023-05-07T05:19:37;11.32;;;10.82;;
11531;SDS011;5822;51.000;5.874;2023-05-07T05:22:03;11.70;;;11.20;;
11531;SDS011;5822;51.000;5.874;2023-05-07T05:24:29;11.75;;;11.20;;
11531;SDS011;5822;51.000;5.874;2023-05-07T05:26:55;11.43;;;10.82;;
11531;SDS011;5822;51.000;5.874;2023-05-07T05:29:21;11.60;;;11.10;;
11531;SDS011;5822;51.000;5.874;2023-05-07T05:31:47;11.40;;;10.90;;
11531;SDS011;5822;51.000;5.874;2023-05-07T05:34:13;11.10;;;10.60;;
11531;SDS011;5822;51.000;5.874;2023-05-07T05:36:38;10.93;;;10.43;;
11531;SDS011;5822;51.000;5.874;2023-05-07T05:39:04;11.10;;;10.60;;
11531;SDS011;5822;51.000;5.874;2023-05-07T05:41:30;11.10;;;10.60;;
11531;SDS011;5822;51.000;5.874;2023-05-07T05:43:55;11.13;;;10.63;;
11531;SDS011;5822;51.000;5.874;2023-05-07T05:46:21;11.43;;;10.83;;
11531;SDS011;5822;51.000;5.874;2023-05-07T05:48:46;11.02;;;10.52;;
11531;SDS011;5822;51.000;5.874;2023-05-07T05:51:12;10.82;;;10.32;;
11531;SDS011;5822;51.000;5.874;2023-05-07T05:53:38;11.00;;;10.50;;
11531;SDS011;5822;51.000;5.874;2023-05-07T05:56:04;11.60;;;11.10;;
11531;SDS011;5822;51.000;5.874;2023-05-07T05:58:29;11.07;;;10.57;;
11531;SDS011;5822;51.000;5.874;2023-05-07T06:00:55;11.13;;;10.63;;
11531;SDS011;5822;51.000;5.874;2023-05-07T06:03:21;11.40;;;10.90;;
11531;SDS011;5822;51.000;5.874;2023-05-07T06:05:47;11.23;;;10.73;;
11531;SDS011;5822;51.000;5.874;2023-05-07T06:08:13;11.50;;;11.00;;
11531;SDS011;5822;51.000;5.874;2023-05-07T06:10:38;11.70;;;11.20;;
11531;SDS011;5822;51.000;5.874;2023-05-07T06:13:04;11.23;;;10.73;;
11531;SDS011;5822;51.000;5.874;2023-05-07T06:15:30;11.85;;;11.27;;
11531;SDS011;5822;51.000;5.874;2023-05-07T06:17:56;12.07;;;11.57;;
11531;SDS011;5822;51.000;5.874;2023-05-07T06:20:22;12.48;;;11.88;;
11531;SDS011;5822;51.000;5.874;2023-05-07T06:22:48;12.45;;;11.85;;
11531;SDS011;5822;51.000;5.874;2023-05-07T06:25:14;12.45;;;11.90;;
11531;SDS011;5822;51.000;5.874;2023-05-07T06:27:39;12.37;;;11.77;;
11531;SDS011;5822;51.000;5.874;2023-05-07T06:30:05;11.37;;;10.87;;
11531;SDS011;5822;51.000;5.874;2023-05-07T06:32:32;11.40;;;10.90;;
11531;SDS011;5822;51.000;5.874;2023-05-07T06:34:57;11.40;;;10.90;;
11531;SDS011;5822;51.000;5.874;2023-05-07T06:37:23;11.20;;;10.70;;
11531;SDS011;5822;51.000;5.874;2023-05-07T06:39:49;11.82;;;11.32;;
11531;SDS011;5822;51.000;5.874;2023-05-07T06:42:14;11.52;;;11.02;;
11531;SDS011;5822;51.000;5.874;2023-05-07T06:44:40;11.38;;;10.88;;
11531;SDS011;5822;51.000;5.874;2023-05-07T06:47:06;11.20;;;10.70;;
11531;SDS011;5822;51.000;5.874;2023-05-07T06:49:31;11.27;;;10.77;;
11531;SDS011;5822;51.000;5.874;2023-05-07T06:51:58;11.10;;;10.60;;
11531;SDS011;5822;51.000;5.874;2023-05-07T06:54:23;11.00;;;10.50;;
11531;SDS011;5822;51.000;5.874;2023-05-07T06:56:49;10.90;;;10.40;;
11531;SDS011;5822;51.000;5.874;2023-05-07T06:59:15;11.00;;;10.50;;
11531;SDS011;5822;51.000;5.874;2023-05-07T07:01:40;11.40;;;10.90;;
11531;SDS011;5822;51.000;5.874;2023-05-07T07:04:06;11.60;;;11.10;;
11531;SDS011;5822;51.000;5.874;2023-05-07T07:06:32;11.02;;;10.52;;
11531;SDS011;5822;51.000;5.874;2023-05-07T07:08:58;11.00;;;10.50;;
11531;SDS011;5822;51.000;5.874;2023-05-07T07:11:24;11.43;;;10.93;;
11531;SDS011;5822;51.000;5.874;2023-05-07T07:13:50;11.43;;;10.93;;
11531;SDS011;5822;51.000;5.874;2023-05-07T07:16:15;11.10;;;10.60;;
11531;SDS011;5822;51.000;5.874;2023-05-07T07:18:41;10.80;;;10.30;;
11531;SDS011;5822;51.000;5.874;2023-05-07T07:21:07;10.82;;;10.32;;
11531;SDS011;5822;51.000;5.874;2023-05-07T07:23:33;11.73;;;11.23;;
11531;SDS011;5822;51.000;5.874;2023-05-07T07:25:58;11.00;;;10.50;;
11531;SDS011;5822;51.000;5.874;2023-05-07T07:28:24;11.00;;;10.50;;
11531;SDS011;5822;51.000;5.874;2023-05-07T07:30:50;11.10;;;10.60;;
11531;SDS011;5822;51.000;5.874;2023-05-07T07:33:16;11.00;;;10.50;;
11531;SDS011;5822;51.000;5.874;2023-05-07T07:35:41;10.73;;;10.23;;
11531;SDS011;5822;51.000;5.874;2023-05-07T07:38:07;10.83;;;10.33;;
11531;SDS011;5822;51.000;5.874;2023-05-07T07:40:36;10.93;;;10.43;;
11531;SDS011;5822;51.000;5.874;2023-05-07T07:43:01;10.57;;;10.17;;
11531;SDS011;5822;51.000;5.874;2023-05-07T07:45:27;10.37;;;9.90;;
11531;SDS011;5822;51.000;5.874;2023-05-07T07:47:53;10.50;;;10.00;;
11531;SDS011;5822;51.000;5.874;2023-05-07T07:50:18;10.30;;;9.90;;
11531;SDS011;5822;51.000;5.874;2023-05-07T07:52:44;10.40;;;9.93;;
11531;SDS011;5822;51.000;5.874;2023-05-07T07:55:10;10.30;;;9.90;;
11531;SDS011;5822;51.000;5.874;2023-05-07T07:57:37;10.50;;;10.00;;
11531;SDS011;5822;51.000;5.874;2023-05-07T08:00:02;10.00;;;9.60;;
11531;SDS011;5822;51.000;5.874;2023-05-07T08:02:29;9.97;;;9.57;;
11531;SDS011;5822;51.000;5.874;2023-05-07T08:04:55;9.80;;;9.40;;
11531;SDS011;5822;51.000;5.874;2023-05-07T08:07:21;9.70;;;9.30;;
11531;SDS011;5822;51.000;5.874;2023-05-07T08:09:47;9.77;;;9.38;;
11531;SDS011;5822;51.000;5.874;2023-05-07T08:12:13;9.60;;;9.20;;
11531;SDS011;5822;51.000;5.874;2023-05-07T08:14:39;9.45;;;9.05;;
11531;SDS011;5822;51.000;5.874;2023-05-07T08:17:05;9.55;;;9.15;;
11531;SDS011;5822;51.000;5.874;2023-05-07T08:19:31;9.82;;;9.43;;
11531;SDS011;5822;51.000;5.874;2023-05-07T08:21:57;9.85;;;9.45;;
11531;SDS011;5822;51.000;5.874;2023-05-07T08:24:22;9.80;;;9.40;;
11531;SDS011;5822;51.000;5.874;2023-05-07T08:26:48;10.15;;;9.75;;
11531;SDS011;5822;51.000;5.874;2023-05-07T08:29:14;10.00;;;9.60;;
11531;SDS011;5822;51.000;5.874;2023-05-07T08:31:40;9.90;;;9.50;;
11531;SDS011;5822;51.000;5.874;2023-05-07T08:34:06;9.93;;;9.53;;
11531;SDS011;5822;51.000;5.874;2023-05-07T08:36:31;9.60;;;9.20;;
11531;SDS011;5822;51.000;5.874;2023-05-07T08:38:57;9.93;;;9.52;;
11531;SDS011;5822;51.000;5.874;2023-05-07T08:41:24;10.13;;;9.73;;
11531;SDS011;5822;51.000;5.874;2023-05-07T08:43:50;10.20;;;9.80;;
11531;SDS011;5822;51.000;5.874;2023-05-07T08:46:20;9.93;;;9.52;;
11531;SDS011;5822;51.000;5.874;2023-05-07T08:48:49;10.00;;;9.60;;
11531;SDS011;5822;51.000;5.874;2023-05-07T08:51:17;9.57;;;9.18;;
11531;SDS011;5822;51.000;5.874;2023-05-07T08:53:44;9.97;;;9.57;;
11531;SDS011;5822;51.000;5.874;2023-05-07T08:56:10;10.02;;;9.63;;
11531;SDS011;5822;51.000;5.874;2023-05-07T08:58:36;10.30;;;9.90;;
11531;SDS011;5822;51.000;5.874;2023-05-07T09:01:03;10.40;;;10.00;;
11531;SDS011;5822;51.000;5.874;2023-05-07T09:03:33;10.77;;;10.38;;
11531;SDS011;5822;51.000;5.874;2023-05-07T09:05:58;10.45;;;10.05;;
11531;SDS011;5822;51.000;5.874;2023-05-07T09:08:24;10.30;;;9.90;;
11531;SDS011;5822;51.000;5.874;2023-05-07T09:10:52;10.57;;;10.18;;
11531;SDS011;5822;51.000;5.874;2023-05-07T09:13:18;10.20;;;9.80;;
11531;SDS011;5822;51.000;5.874;2023-05-07T09:15:44;9.52;;;9.13;;
11531;SDS011;5822;51.000;5.874;2023-05-07T09:18:10;10.07;;;9.68;;
11531;SDS011;5822;51.000;5.874;2023-05-07T09:20:37;10.27;;;9.88;;
11531;SDS011;5822;51.000;5.874;2023-05-07T09:23:03;10.43;;;10.02;;
11531;SDS011;5822;51.000;5.874;2023-05-07T09:25:32;10.80;;;10.40;;
11531;SDS011;5822;51.000;5.874;2023-05-07T09:27:59;9.97;;;9.57;;
11531;SDS011;5822;51.000;5.874;2023-05-07T09:30:32;10.75;;;10.35;;
11531;SDS011;5822;51.000;5.874;2023-05-07T09:32:59;11.15;;;10.75;;
11531;SDS011;5822;51.000;5.874;2023-05-07T09:35:26;12.52;;;12.02;;
11531;SDS011;5822;51.000;5.874;2023-05-07T09:37:56;12.77;;;12.27;;
11531;SDS011;5822;51.000;5.874;2023-05-07T09:40:23;12.75;;;12.25;;
11531;SDS011;5822;51.000;5.874;2023-05-07T09:42:53;12.65;;;12.15;;
11531;SDS011;5822;51.000;5.874;2023-05-07T09:45:25;12.65;;;12.15;;
11531;SDS011;5822;51.000;5.874;2023-05-07T09:47:54;10.48;;;10.07;;
11531;SDS011;5822;51.000;5.874;2023-05-07T09:50:22;11.68;;;11.18;;
11531;SDS011;5822;51.000;5.874;2023-05-07T09:52:52;11.10;;;10.68;;
11531;SDS011;5822;51.000;5.874;2023-05-07T09:55:20;11.93;;;11.43;;
11531;SDS011;5822;51.000;5.874;2023-05-07T09:57:46;11.80;;;11.30;;
11531;SDS011;5822;51.000;5.874;2023-05-07T10:00:15;13.10;;;12.60;;
11531;SDS011;5822;51.000;5.874;2023-05-07T10:02:42;13.15;;;12.65;;
11531;SDS011;5822;51.000;5.874;2023-05-07T10:05:14;13.27;;;12.77;;
11531;SDS011;5822;51.000;5.874;2023-05-07T10:07:40;13.77;;;13.18;;
11531;SDS011;5822;51.000;5.874;2023-05-07T10:10:06;13.30;;;12.80;;
11531;SDS011;5822;51.000;5.874;2023-05-07T10:12:32;13.00;;;12.50;;
11531;SDS011;5822;51.000;5.874;2023-05-07T10:15:04;13.15;;;12.55;;
11531;SDS011;5822;51.000;5.874;2023-05-07T10:17:40;13.60;;;13.10;;
11531;SDS011;5822;51.000;5.874;2023-05-07T10:20:06;13.60;;;13.10;;
11531;SDS011;5822;51.000;5.874;2023-05-07T10:22:43;13.38;;;12.88;;
11531;SDS011;5822;51.000;5.874;2023-05-07T10:25:18;13.07;;;12.57;;
11531;SDS011;5822;51.000;5.874;2023-05-07T10:27:48;11.40;;;10.90;;
11531;SDS011;5822;51.000;5.874;2023-05-07T10:33:14;11.10;;;10.60;;
11531;SDS011;5822;51.000;5.874;2023-05-07T10:35:43;11.00;;;10.60;;
11531;SDS011;5822;51.000;5.874;2023-05-07T10:38:11;11.87;;;11.37;;
11531;SDS011;5822;51.000;5.874;2023-05-07T10:40:37;12.43;;;11.93;;
11531;SDS011;5822;51.000;5.874;2023-05-07T10:43:04;13.50;;;13.00;;
11531;SDS011;5822;51.000;5.874;2023-05-07T10:45:30;12.70;;;12.20;;
11531;SDS011;5822;51.000;5.874;2023-05-07T10:50:35;12.70;;;12.20;;
11531;SDS011;5822;51.000;5.874;2023-05-07T10:55:52;12.38;;;11.88;;
11531;SDS011;5822;51.000;5.874;2023-05-07T10:58:46;11.90;;;11.40;;
11531;SDS011;5822;51.000;5.874;2023-05-07T11:01:12;12.23;;;11.73;;
11531;SDS011;5822;51.000;5.874;2023-05-07T11:06:40;12.05;;;11.55;;
11531;SDS011;5822;51.000;5.874;2023-05-07T11:09:06;10.07;;;9.68;;
11531;SDS011;5822;51.000;5.874;2023-05-07T11:11:47;9.90;;;9.50;;
11531;SDS011;5822;51.000;5.874;2023-05-07T11:17:08;11.32;;;10.82;;
11531;SDS011;5822;51.000;5.874;2023-05-07T11:25:06;12.35;;;11.85;;
11531;SDS011;5822;51.000;5.874;2023-05-07T11:27:32;12.60;;;12.10;;
11531;SDS011;5822;51.000;5.874;2023-05-07T11:29:58;12.02;;;11.52;;
11531;SDS011;5822;51.000;5.874;2023-05-07T11:32:26;11.20;;;10.70;;
11531;SDS011;5822;51.000;5.874;2023-05-07T11:34:54;11.60;;;11.10;;
11531;SDS011;5822;51.000;5.874;2023-05-07T11:37:21;11.50;;;11.00;;
11531;SDS011;5822;51.000;5.874;2023-05-07T11:39:48;10.48;;;10.07;;
11531;SDS011;5822;51.000;5.874;2023-05-07T11:42:30;10.23;;;9.82;;
11531;SDS011;5822;51.000;5.874;2023-05-07T11:45:02;10.40;;;10.00;;
11531;SDS011;5822;51.000;5.874;2023-05-07T11:47:31;10.50;;;10.10;;
11531;SDS011;5822;51.000;5.874;2023-05-07T11:50:01;10.48;;;10.07;;
11531;SDS011;5822;51.000;5.874;2023-05-07T11:52:32;11.60;;;11.10;;
11531;SDS011;5822;51.000;5.874;2023-05-07T11:54:58;11.63;;;11.10;;
11531;SDS011;5822;51.000;5.874;2023-05-07T11:57:25;16.50;;;15.50;;
11531;SDS011;5822;51.000;5.874;2023-05-07T11:59:55;17.33;;;16.33;;
11531;SDS011;5822;51.000;5.874;2023-05-07T12:02:22;18.02;;;17.02;;
11531;SDS011;5822;51.000;5.874;2023-05-07T12:04:49;16.98;;;16.08;;
11531;SDS011;5822;51.000;5.874;2023-05-07T12:07:16;17.43;;;16.33;;
11531;SDS011;5822;51.000;5.874;2023-05-07T12:09:43;16.85;;;15.95;;
11531;SDS011;5822;51.000;5.874;2023-05-07T12:12:10;16.90;;;16.00;;
11531;SDS011;5822;51.000;5.874;2023-05-07T12:14:39;16.63;;;15.73;;
11531;SDS011;5822;51.000;5.874;2023-05-07T12:17:09;17.05;;;16.05;;
11531;SDS011;5822;51.000;5.874;2023-05-07T12:19:36;16.30;;;15.40;;
11531;SDS011;5822;51.000;5.874;2023-05-07T12:22:03;16.35;;;15.45;;
11531;SDS011;5822;51.000;5.874;2023-05-07T12:24:30;16.25;;;15.35;;
11531;SDS011;5822;51.000;5.874;2023-05-07T12:27:10;16.33;;;15.43;;
11531;SDS011;5822;51.000;5.874;2023-05-07T12:29:36;16.70;;;15.80;;
11531;SDS011;5822;51.000;5.874;2023-05-07T12:32:05;16.80;;;15.90;;
11531;SDS011;5822;51.000;5.874;2023-05-07T12:34:31;16.48;;;15.57;;
11531;SDS011;5822;51.000;5.874;2023-05-07T12:36:57;16.50;;;15.60;;
11531;SDS011;5822;51.000;5.874;2023-05-07T12:39:26;16.85;;;15.95;;
11531;SDS011;5822;51.000;5.874;2023-05-07T12:41:55;16.30;;;15.40;;
11531;SDS011;5822;51.000;5.874;2023-05-07T12:44:23;16.08;;;15.18;;
11531;SDS011;5822;51.000;5.874;2023-05-07T12:47:02;16.40;;;15.50;;
11531;SDS011;5822;51.000;5.874;2023-05-07T12:49:28;16.90;;;15.90;;
11531;SDS011;5822;51.000;5.874;2023-05-07T12:51:54;16.63;;;15.63;;
11531;SDS011;5822;51.000;5.874;2023-05-07T12:54:30;16.30;;;15.40;;
11531;SDS011;5822;51.000;5.874;2023-05-07T12:57:00;16.20;;;15.30;;
11531;SDS011;5822;51.000;5.874;2023-05-07T12:59:33;16.40;;;15.50;;
11531;SDS011;5822;51.000;5.874;2023-05-07T13:02:00;17.00;;;16.10;;
11531;SDS011;5822;51.000;5.874;2023-05-07T13:04:26;16.40;;;15.50;;
11531;SDS011;5822;51.000;5.874;2023-05-07T13:06:52;16.30;;;15.40;;
11531;SDS011;5822;51.000;5.874;2023-05-07T13:09:17;16.60;;;15.70;;
11531;SDS011;5822;51.000;5.874;2023-05-07T13:11:43;16.67;;;15.77;;
11531;SDS011;5822;51.000;5.874;2023-05-07T13:14:09;15.80;;;15.00;;
11531;SDS011;5822;51.000;5.874;2023-05-07T13:16:34;15.53;;;14.73;;
11531;SDS011;5822;51.000;5.874;2023-05-07T13:19:00;15.40;;;14.60;;
11531;SDS011;5822;51.000;5.874;2023-05-07T13:21:25;15.30;;;14.50;;
11531;SDS011;5822;51.000;5.874;2023-05-07T13:23:51;15.35;;;14.55;;
11531;SDS011;5822;51.000;5.874;2023-05-07T13:26:17;15.25;;;14.45;;
11531;SDS011;5822;51.000;5.874;2023-05-07T13:28:43;15.20;;;14.40;;
11531;SDS011;5822;51.000;5.874;2023-05-07T13:31:09;15.00;;;14.20;;
11531;SDS011;5822;51.000;5.874;2023-05-07T13:33:35;15.13;;;14.33;;
11531;SDS011;5822;51.000;5.874;2023-05-07T13:36:01;14.60;;;13.90;;
11531;SDS011;5822;51.000;5.874;2023-05-07T13:38:29;14.57;;;13.88;;
11531;SDS011;5822;51.000;5.874;2023-05-07T13:40:55;14.20;;;13.50;;
11531;SDS011;5822;51.000;5.874;2023-05-07T13:43:20;14.20;;;13.50;;
11531;SDS011;5822;51.000;5.874;2023-05-07T13:45:46;14.30;;;13.60;;
11531;SDS011;5822;51.000;5.874;2023-05-07T13:48:11;14.13;;;13.43;;
11531;SDS011;5822;51.000;5.874;2023-05-07T13:50:37;14.40;;;13.70;;
11531;SDS011;5822;51.000;5.874;2023-05-07T13:53:03;14.20;;;13.50;;
11531;SDS011;5822;51.000;5.874;2023-05-07T13:55:29;14.20;;;13.50;;
11531;SDS011;5822;51.000;5.874;2023-05-07T13:57:55;13.55;;;12.90;;
11531;SDS011;5822;51.000;5.874;2023-05-07T14:00:23;13.10;;;12.50;;
11531;SDS011;5822;51.000;5.874;2023-05-07T14:02:49;13.13;;;12.53;;
11531;SDS011;5822;51.000;5.874;2023-05-07T14:05:15;13.00;;;12.40;;
11531;SDS011;5822;51.000;5.874;2023-05-07T14:07:41;12.55;;;11.95;;
11531;SDS011;5822;51.000;5.874;2023-05-07T14:10:06;12.80;;;12.20;;
11531;SDS011;5822;51.000;5.874;2023-05-07T14:12:32;13.03;;;12.33;;
11531;SDS011;5822;51.000;5.874;2023-05-07T14:14:58;13.43;;;12.73;;
11531;SDS011;5822;51.000;5.874;2023-05-07T14:17:24;12.90;;;12.30;;
11531;SDS011;5822;51.000;5.874;2023-05-07T14:19:51;12.90;;;12.30;;
11531;SDS011;5822;51.000;5.874;2023-05-07T14:22:21;12.70;;;12.10;;
11531;SDS011;5822;51.000;5.874;2023-05-07T14:24:47;12.83;;;12.23;;
11531;SDS011;5822;51.000;5.874;2023-05-07T14:27:14;13.05;;;12.45;;
11531;SDS011;5822;51.000;5.874;2023-05-07T14:29:39;13.00;;;12.40;;
11531;SDS011;5822;51.000;5.874;2023-05-07T14:32:05;12.87;;;12.27;;
11531;SDS011;5822;51.000;5.874;2023-05-07T14:34:31;12.73;;;12.13;;
11531;SDS011;5822;51.000;5.874;2023-05-07T14:36:57;13.20;;;12.50;;
11531;SDS011;5822;51.000;5.874;2023-05-07T14:39:23;13.20;;;12.60;;
11531;SDS011;5822;51.000;5.874;2023-05-07T14:41:49;13.57;;;12.88;;
11531;SDS011;5822;51.000;5.874;2023-05-07T14:44:14;13.05;;;12.45;;
11531;SDS011;5822;51.000;5.874;2023-05-07T14:46:40;13.27;;;12.63;;
11531;SDS011;5822;51.000;5.874;2023-05-07T14:49:06;13.60;;;12.95;;
11531;SDS011;5822;51.000;5.874;2023-05-07T14:51:31;13.43;;;12.75;;
11531;SDS011;5822;51.000;5.874;2023-05-07T14:53:58;13.70;;;13.00;;
11531;SDS011;5822;51.000;5.874;2023-05-07T14:56:23;16.80;;;15.80;;